sensor_id;sensor_type;location;lat;lon;timestamp;P1;durP1;ratioP1;P2;durP2;ratioP2
59167;SDS011;70412;55.048;73.268;2023-09-07T00:02:31;12.93;;;5.10;;
59167;SDS011;70412;55.048;73.268;2023-09-07T00:05:34;9.23;;;4.47;;
59167;SDS011;70412;55.048;73.268;2023-09-07T00:08:36;11.18;;;5.05;;
59167;SDS011;70412;55.048;73.268;2023-09-07T00:11:40;13.73;;;4.97;;
59167;SDS011;70412;55.048;73.268;2023-09-07T00:14:43;11.82;;;5.55;;
59167;SDS011;70412;55.048;73.268;2023-09-07T00:17:46;9.68;;;5.40;;
59167;SDS011;70412;55.048;73.268;2023-09-07T00:20:49;12.75;;;6.05;;
59167;SDS011;70412;55.048;73.268;2023-09-07T00:23:51;12.90;;;5.53;;
59167;SDS011;70412;55.048;73.268;2023-09-07T00:26:54;12.43;;;5.00;;
59167;SDS011;70412;55.048;73.268;2023-09-07T00:29:57;12.52;;;5.18;;
59167;SDS011;70412;55.048;73.268;2023-09-07T00:32:59;12.32;;;5.53;;
59167;SDS011;70412;55.048;73.268;2023-09-07T00:36:02;22.67;;;6.88;;
59167;SDS011;70412;55.048;73.268;2023-09-07T00:39:04;14.93;;;7.43;;
59167;SDS011;70412;55.048;73.268;2023-09-07T00:42:06;15.55;;;5.82;;
59167;SDS011;70412;55.048;73.268;2023-09-07T00:45:09;10.45;;;5.47;;
59167;SDS011;70412;55.048;73.268;2023-09-07T00:48:12;14.50;;;5.40;;
59167;SDS011;70412;55.048;73.268;2023-09-07T00:51:17;13.23;;;5.50;;
59167;SDS011;70412;55.048;73.268;2023-09-07T00:54:20;14.80;;;4.55;;
59167;SDS011;70412;55.048;73.268;2023-09-07T00:57:24;10.23;;;4.38;;
59167;SDS011;70412;55.048;73.268;2023-09-07T01:00:27;9.75;;;3.95;;
59167;SDS011;70412;55.048;73.268;2023-09-07T01:03:30;11.15;;;5.68;;
59167;SDS011;70412;55.048;73.268;2023-09-07T01:06:37;10.25;;;4.68;;
59167;SDS011;70412;55.048;73.268;2023-09-07T01:09:47;9.63;;;4.68;;
59167;SDS011;70412;55.048;73.268;2023-09-07T01:13:05;8.77;;;5.00;;
59167;SDS011;70412;55.048;73.268;2023-09-07T01:16:09;8.48;;;4.88;;
59167;SDS011;70412;55.048;73.268;2023-09-07T01:19:13;10.10;;;5.50;;
59167;SDS011;70412;55.048;73.268;2023-09-07T01:22:16;12.45;;;5.28;;
59167;SDS011;70412;55.048;73.268;2023-09-07T01:25:20;10.50;;;4.80;;
59167;SDS011;70412;55.048;73.268;2023-09-07T01:28:23;9.18;;;5.00;;
59167;SDS011;70412;55.048;73.268;2023-09-07T01:31:26;16.58;;;4.88;;
59167;SDS011;70412;55.048;73.268;2023-09-07T01:34:28;10.43;;;5.07;;
59167;SDS011;70412;55.048;73.268;2023-09-07T01:37:31;8.30;;;3.83;;
59167;SDS011;70412;55.048;73.268;2023-09-07T01:40:34;7.38;;;4.00;;
59167;SDS011;70412;55.048;73.268;2023-09-07T01:43:37;10.18;;;3.83;;
59167;SDS011;70412;55.048;73.268;2023-09-07T01:46:40;6.93;;;3.72;;
59167;SDS011;70412;55.048;73.268;2023-09-07T01:49:42;9.90;;;3.72;;
59167;SDS011;70412;55.048;73.268;2023-09-07T01:52:46;8.98;;;3.75;;
59167;SDS011;70412;55.048;73.268;2023-09-07T01:55:55;10.80;;;4.00;;
59167;SDS011;70412;55.048;73.268;2023-09-07T01:58:57;8.15;;;5.05;;
59167;SDS011;70412;55.048;73.268;2023-09-07T02:02:00;6.68;;;3.90;;
59167;SDS011;70412;55.048;73.268;2023-09-07T02:05:02;6.53;;;3.78;;
59167;SDS011;70412;55.048;73.268;2023-09-07T02:08:05;7.40;;;3.92;;
59167;SDS011;70412;55.048;73.268;2023-09-07T02:11:08;6.72;;;3.58;;
59167;SDS011;70412;55.048;73.268;2023-09-07T02:14:11;8.20;;;3.87;;
59167;SDS011;70412;55.048;73.268;2023-09-07T02:17:13;6.97;;;3.58;;
59167;SDS011;70412;55.048;73.268;2023-09-07T02:20:20;8.15;;;3.78;;
59167;SDS011;70412;55.048;73.268;2023-09-07T02:23:22;8.48;;;4.10;;
59167;SDS011;70412;55.048;73.268;2023-09-07T02:26:25;8.98;;;4.15;;
59167;SDS011;70412;55.048;73.268;2023-09-07T02:29:28;11.73;;;3.88;;
59167;SDS011;70412;55.048;73.268;2023-09-07T02:32:31;13.63;;;4.07;;
59167;SDS011;70412;55.048;73.268;2023-09-07T02:35:37;15.05;;;4.65;;
59167;SDS011;70412;55.048;73.268;2023-09-07T02:38:40;15.63;;;4.18;;
59167;SDS011;70412;55.048;73.268;2023-09-07T02:41:43;21.63;;;5.25;;
59167;SDS011;70412;55.048;73.268;2023-09-07T02:44:48;15.48;;;4.63;;
59167;SDS011;70412;55.048;73.268;2023-09-07T02:47:50;9.38;;;4.03;;
59167;SDS011;70412;55.048;73.268;2023-09-07T02:50:54;11.80;;;4.35;;
59167;SDS011;70412;55.048;73.268;2023-09-07T02:57:03;8.38;;;4.68;;
59167;SDS011;70412;55.048;73.268;2023-09-07T03:00:06;12.38;;;4.40;;
59167;SDS011;70412;55.048;73.268;2023-09-07T03:03:11;8.03;;;4.63;;
59167;SDS011;70412;55.048;73.268;2023-09-07T03:06:15;11.02;;;5.10;;
59167;SDS011;70412;55.048;73.268;2023-09-07T03:09:25;9.20;;;4.82;;
59167;SDS011;70412;55.048;73.268;2023-09-07T03:12:27;13.88;;;5.93;;
59167;SDS011;70412;55.048;73.268;2023-09-07T03:15:30;14.93;;;5.38;;
59167;SDS011;70412;55.048;73.268;2023-09-07T03:18:32;14.50;;;5.20;;
59167;SDS011;70412;55.048;73.268;2023-09-07T03:21:35;15.35;;;5.60;;
59167;SDS011;70412;55.048;73.268;2023-09-07T03:24:38;15.95;;;5.25;;
59167;SDS011;70412;55.048;73.268;2023-09-07T03:27:40;13.48;;;4.95;;
59167;SDS011;70412;55.048;73.268;2023-09-07T03:30:45;13.20;;;4.65;;
59167;SDS011;70412;55.048;73.268;2023-09-07T03:33:48;14.30;;;5.28;;
59167;SDS011;70412;55.048;73.268;2023-09-07T03:36:51;15.18;;;5.65;;
59167;SDS011;70412;55.048;73.268;2023-09-07T03:39:54;17.05;;;4.82;;
59167;SDS011;70412;55.048;73.268;2023-09-07T03:42:57;17.23;;;4.95;;
59167;SDS011;70412;55.048;73.268;2023-09-07T03:46:01;8.52;;;4.40;;
59167;SDS011;70412;55.048;73.268;2023-09-07T03:49:04;10.23;;;4.40;;
59167;SDS011;70412;55.048;73.268;2023-09-07T03:52:07;12.30;;;4.70;;
59167;SDS011;70412;55.048;73.268;2023-09-07T03:55:09;12.10;;;4.53;;
59167;SDS011;70412;55.048;73.268;2023-09-07T03:58:13;13.80;;;4.53;;
59167;SDS011;70412;55.048;73.268;2023-09-07T04:01:17;12.57;;;4.07;;
59167;SDS011;70412;55.048;73.268;2023-09-07T04:04:20;19.45;;;8.43;;
59167;SDS011;70412;55.048;73.268;2023-09-07T04:07:23;11.38;;;5.32;;
59167;SDS011;70412;55.048;73.268;2023-09-07T04:10:26;11.73;;;4.28;;
59167;SDS011;70412;55.048;73.268;2023-09-07T04:13:29;11.70;;;3.83;;
59167;SDS011;70412;55.048;73.268;2023-09-07T04:16:31;8.85;;;4.00;;
59167;SDS011;70412;55.048;73.268;2023-09-07T04:19:34;7.93;;;3.35;;
59167;SDS011;70412;55.048;73.268;2023-09-07T04:22:36;5.88;;;3.26;;
59167;SDS011;70412;55.048;73.268;2023-09-07T04:25:38;13.35;;;3.40;;
59167;SDS011;70412;55.048;73.268;2023-09-07T04:28:41;10.90;;;3.70;;
59167;SDS011;70412;55.048;73.268;2023-09-07T04:31:44;9.00;;;4.07;;
59167;SDS011;70412;55.048;73.268;2023-09-07T04:34:52;10.93;;;3.90;;
59167;SDS011;70412;55.048;73.268;2023-09-07T04:37:56;12.15;;;3.80;;
59167;SDS011;70412;55.048;73.268;2023-09-07T04:41:06;11.15;;;3.83;;
59167;SDS011;70412;55.048;73.268;2023-09-07T04:44:09;8.15;;;3.83;;
59167;SDS011;70412;55.048;73.268;2023-09-07T04:47:12;12.32;;;4.40;;
59167;SDS011;70412;55.048;73.268;2023-09-07T04:50:15;7.30;;;3.50;;
59167;SDS011;70412;55.048;73.268;2023-09-07T04:53:18;13.63;;;3.92;;
59167;SDS011;70412;55.048;73.268;2023-09-07T04:56:20;14.38;;;3.83;;
59167;SDS011;70412;55.048;73.268;2023-09-07T04:59:23;11.50;;;3.22;;
59167;SDS011;70412;55.048;73.268;2023-09-07T05:02:26;9.55;;;3.38;;
59167;SDS011;70412;55.048;73.268;2023-09-07T05:05:28;9.98;;;4.05;;
59167;SDS011;70412;55.048;73.268;2023-09-07T05:08:31;10.80;;;3.70;;
59167;SDS011;70412;55.048;73.268;2023-09-07T05:11:37;12.52;;;4.70;;
59167;SDS011;70412;55.048;73.268;2023-09-07T05:14:40;25.40;;;6.10;;
59167;SDS011;70412;55.048;73.268;2023-09-07T05:17:43;32.58;;;6.95;;
59167;SDS011;70412;55.048;73.268;2023-09-07T05:20:57;91.20;;;13.38;;
59167;SDS011;70412;55.048;73.268;2023-09-07T05:24:03;96.97;;;16.05;;
59167;SDS011;70412;55.048;73.268;2023-09-07T05:27:06;89.80;;;14.75;;
59167;SDS011;70412;55.048;73.268;2023-09-07T05:30:10;66.25;;;11.93;;
59167;SDS011;70412;55.048;73.268;2023-09-07T05:33:14;48.70;;;8.95;;
59167;SDS011;70412;55.048;73.268;2023-09-07T05:36:18;39.88;;;8.07;;
59167;SDS011;70412;55.048;73.268;2023-09-07T05:39:21;26.70;;;6.53;;
59167;SDS011;70412;55.048;73.268;2023-09-07T05:42:23;33.28;;;6.68;;
59167;SDS011;70412;55.048;73.268;2023-09-07T05:45:28;17.30;;;4.75;;
59167;SDS011;70412;55.048;73.268;2023-09-07T05:48:38;41.90;;;8.90;;
59167;SDS011;70412;55.048;73.268;2023-09-07T05:51:42;17.15;;;5.32;;
59167;SDS011;70412;55.048;73.268;2023-09-07T05:54:44;28.33;;;6.85;;
59167;SDS011;70412;55.048;73.268;2023-09-07T05:57:48;24.42;;;5.15;;
59167;SDS011;70412;55.048;73.268;2023-09-07T06:00:51;13.52;;;4.47;;
59167;SDS011;70412;55.048;73.268;2023-09-07T06:03:54;19.77;;;6.05;;
59167;SDS011;70412;55.048;73.268;2023-09-07T06:07:25;57.28;;;10.02;;
59167;SDS011;70412;55.048;73.268;2023-09-07T06:10:30;36.65;;;7.80;;
59167;SDS011;70412;55.048;73.268;2023-09-07T06:13:53;41.63;;;7.78;;
59167;SDS011;70412;55.048;73.268;2023-09-07T06:17:11;38.42;;;6.18;;
59167;SDS011;70412;55.048;73.268;2023-09-07T06:20:29;20.38;;;5.20;;
59167;SDS011;70412;55.048;73.268;2023-09-07T06:23:41;27.90;;;5.56;;
59167;SDS011;70412;55.048;73.268;2023-09-07T06:26:44;67.10;;;11.13;;
59167;SDS011;70412;55.048;73.268;2023-09-07T06:29:47;56.97;;;12.45;;
59167;SDS011;70412;55.048;73.268;2023-09-07T06:32:51;46.90;;;8.32;;
59167;SDS011;70412;55.048;73.268;2023-09-07T06:35:55;30.63;;;6.95;;
59167;SDS011;70412;55.048;73.268;2023-09-07T06:39:03;34.20;;;7.32;;
59167;SDS011;70412;55.048;73.268;2023-09-07T06:42:06;35.35;;;6.80;;
59167;SDS011;70412;55.048;73.268;2023-09-07T06:45:16;56.25;;;9.85;;
59167;SDS011;70412;55.048;73.268;2023-09-07T06:48:19;35.83;;;7.03;;
59167;SDS011;70412;55.048;73.268;2023-09-07T06:51:21;40.05;;;8.18;;
59167;SDS011;70412;55.048;73.268;2023-09-07T06:54:29;56.85;;;8.93;;
59167;SDS011;70412;55.048;73.268;2023-09-07T06:57:35;112.50;;;16.38;;
59167;SDS011;70412;55.048;73.268;2023-09-07T07:00:39;50.83;;;9.48;;
59167;SDS011;70412;55.048;73.268;2023-09-07T07:03:42;100.55;;;18.67;;
59167;SDS011;70412;55.048;73.268;2023-09-07T07:06:49;119.28;;;19.98;;
59167;SDS011;70412;55.048;73.268;2023-09-07T07:09:56;71.95;;;12.13;;
59167;SDS011;70412;55.048;73.268;2023-09-07T07:12:59;16.30;;;4.55;;
59167;SDS011;70412;55.048;73.268;2023-09-07T07:16:06;17.17;;;3.30;;
59167;SDS011;70412;55.048;73.268;2023-09-07T07:19:14;8.50;;;3.47;;
59167;SDS011;70412;55.048;73.268;2023-09-07T07:22:27;24.55;;;4.97;;
59167;SDS011;70412;55.048;73.268;2023-09-07T07:25:30;5.55;;;2.42;;
59167;SDS011;70412;55.048;73.268;2023-09-07T07:28:55;10.52;;;3.20;;
59167;SDS011;70412;55.048;73.268;2023-09-07T07:31:58;6.45;;;3.42;;
59167;SDS011;70412;55.048;73.268;2023-09-07T07:35:01;9.23;;;3.10;;
59167;SDS011;70412;55.048;73.268;2023-09-07T07:38:06;4.35;;;2.08;;
59167;SDS011;70412;55.048;73.268;2023-09-07T07:41:14;9.60;;;2.88;;
59167;SDS011;70412;55.048;73.268;2023-09-07T07:44:17;34.15;;;22.52;;
59167;SDS011;70412;55.048;73.268;2023-09-07T07:47:26;48.97;;;26.30;;
59167;SDS011;70412;55.048;73.268;2023-09-07T07:50:31;81.63;;;46.70;;
59167;SDS011;70412;55.048;73.268;2023-09-07T07:53:47;43.00;;;26.23;;
59167;SDS011;70412;55.048;73.268;2023-09-07T07:56:57;32.78;;;18.33;;
59167;SDS011;70412;55.048;73.268;2023-09-07T07:59:59;5.55;;;2.00;;
59167;SDS011;70412;55.048;73.268;2023-09-07T08:03:03;9.48;;;2.03;;
59167;SDS011;70412;55.048;73.268;2023-09-07T08:06:13;28.40;;;18.05;;
59167;SDS011;70412;55.048;73.268;2023-09-07T08:09:18;5.53;;;2.78;;
59167;SDS011;70412;55.048;73.268;2023-09-07T08:12:22;7.82;;;2.85;;
59167;SDS011;70412;55.048;73.268;2023-09-07T08:15:24;15.73;;;4.28;;
59167;SDS011;70412;55.048;73.268;2023-09-07T08:18:27;17.73;;;4.45;;
59167;SDS011;70412;55.048;73.268;2023-09-07T08:21:30;30.48;;;7.15;;
59167;SDS011;70412;55.048;73.268;2023-09-07T08:24:32;12.90;;;3.05;;
59167;SDS011;70412;55.048;73.268;2023-09-07T08:27:36;5.93;;;2.83;;
59167;SDS011;70412;55.048;73.268;2023-09-07T08:30:39;8.70;;;2.60;;
59167;SDS011;70412;55.048;73.268;2023-09-07T08:33:42;3.78;;;1.95;;
59167;SDS011;70412;55.048;73.268;2023-09-07T08:36:45;3.67;;;2.10;;
59167;SDS011;70412;55.048;73.268;2023-09-07T08:39:48;9.50;;;3.40;;
59167;SDS011;70412;55.048;73.268;2023-09-07T08:42:51;27.00;;;4.68;;
59167;SDS011;70412;55.048;73.268;2023-09-07T08:45:59;45.55;;;7.20;;
59167;SDS011;70412;55.048;73.268;2023-09-07T08:49:35;35.53;;;6.00;;
59167;SDS011;70412;55.048;73.268;2023-09-07T08:52:46;8.43;;;2.88;;
59167;SDS011;70412;55.048;73.268;2023-09-07T08:55:53;8.27;;;4.40;;
59167;SDS011;70412;55.048;73.268;2023-09-07T08:58:57;3.67;;;2.35;;
59167;SDS011;70412;55.048;73.268;2023-09-07T09:02:02;14.40;;;3.42;;
59167;SDS011;70412;55.048;73.268;2023-09-07T09:05:15;4.30;;;2.11;;
59167;SDS011;70412;55.048;73.268;2023-09-07T09:08:21;12.45;;;5.18;;
59167;SDS011;70412;55.048;73.268;2023-09-07T09:11:26;3.10;;;1.85;;
59167;SDS011;70412;55.048;73.268;2023-09-07T09:14:31;23.90;;;5.45;;
59167;SDS011;70412;55.048;73.268;2023-09-07T09:17:34;21.40;;;4.90;;
59167;SDS011;70412;55.048;73.268;2023-09-07T09:21:03;6.85;;;2.25;;
59167;SDS011;70412;55.048;73.268;2023-09-07T09:24:11;5.57;;;2.17;;
59167;SDS011;70412;55.048;73.268;2023-09-07T09:27:14;12.52;;;5.18;;
59167;SDS011;70412;55.048;73.268;2023-09-07T09:30:16;7.60;;;2.67;;
59167;SDS011;70412;55.048;73.268;2023-09-07T09:33:19;9.70;;;5.30;;
59167;SDS011;70412;55.048;73.268;2023-09-07T09:36:23;8.02;;;4.10;;
59167;SDS011;70412;55.048;73.268;2023-09-07T09:39:29;8.73;;;3.47;;
59167;SDS011;70412;55.048;73.268;2023-09-07T09:42:31;4.57;;;2.13;;
59167;SDS011;70412;55.048;73.268;2023-09-07T09:45:39;4.62;;;2.47;;
59167;SDS011;70412;55.048;73.268;2023-09-07T09:48:54;5.00;;;1.90;;
59167;SDS011;70412;55.048;73.268;2023-09-07T09:51:59;4.25;;;2.03;;
59167;SDS011;70412;55.048;73.268;2023-09-07T09:55:05;5.75;;;2.42;;
59167;SDS011;70412;55.048;73.268;2023-09-07T09:58:16;6.30;;;2.00;;
59167;SDS011;70412;55.048;73.268;2023-09-07T10:01:19;9.25;;;3.78;;
59167;SDS011;70412;55.048;73.268;2023-09-07T10:04:24;5.93;;;2.85;;
59167;SDS011;70412;55.048;73.268;2023-09-07T10:07:48;13.55;;;7.10;;
59167;SDS011;70412;55.048;73.268;2023-09-07T10:10:53;5.03;;;2.00;;
59167;SDS011;70412;55.048;73.268;2023-09-07T10:17:02;3.85;;;2.08;;
59167;SDS011;70412;55.048;73.268;2023-09-07T10:20:06;6.57;;;3.03;;
59167;SDS011;70412;55.048;73.268;2023-09-07T10:23:09;9.00;;;1.73;;
59167;SDS011;70412;55.048;73.268;2023-09-07T10:26:12;4.07;;;2.45;;
59167;SDS011;70412;55.048;73.268;2023-09-07T10:29:19;7.47;;;2.22;;
59167;SDS011;70412;55.048;73.268;2023-09-07T10:32:22;8.38;;;2.63;;
59167;SDS011;70412;55.048;73.268;2023-09-07T10:35:25;19.77;;;4.30;;
59167;SDS011;70412;55.048;73.268;2023-09-07T10:38:34;15.73;;;3.47;;
59167;SDS011;70412;55.048;73.268;2023-09-07T10:41:41;3.05;;;1.63;;
59167;SDS011;70412;55.048;73.268;2023-09-07T10:44:47;5.95;;;2.17;;
59167;SDS011;70412;55.048;73.268;2023-09-07T10:47:50;10.73;;;3.03;;
59167;SDS011;70412;55.048;73.268;2023-09-07T10:50:54;10.20;;;3.03;;
59167;SDS011;70412;55.048;73.268;2023-09-07T10:54:02;14.77;;;3.60;;
59167;SDS011;70412;55.048;73.268;2023-09-07T10:57:24;22.98;;;5.25;;
59167;SDS011;70412;55.048;73.268;2023-09-07T11:00:27;22.95;;;4.95;;
59167;SDS011;70412;55.048;73.268;2023-09-07T11:03:36;40.53;;;7.22;;
59167;SDS011;70412;55.048;73.268;2023-09-07T11:06:47;44.83;;;7.00;;
59167;SDS011;70412;55.048;73.268;2023-09-07T11:10:07;72.45;;;10.00;;
59167;SDS011;70412;55.048;73.268;2023-09-07T11:13:11;25.30;;;5.43;;
59167;SDS011;70412;55.048;73.268;2023-09-07T11:16:14;14.23;;;3.10;;
59167;SDS011;70412;55.048;73.268;2023-09-07T11:19:22;68.78;;;10.63;;
59167;SDS011;70412;55.048;73.268;2023-09-07T11:22:37;36.88;;;6.95;;
59167;SDS011;70412;55.048;73.268;2023-09-07T11:25:55;29.25;;;4.90;;
59167;SDS011;70412;55.048;73.268;2023-09-07T11:28:58;14.65;;;4.18;;
59167;SDS011;70412;55.048;73.268;2023-09-07T11:32:10;32.70;;;10.73;;
59167;SDS011;70412;55.048;73.268;2023-09-07T11:35:14;57.80;;;8.77;;
59167;SDS011;70412;55.048;73.268;2023-09-07T11:38:20;54.83;;;9.63;;
59167;SDS011;70412;55.048;73.268;2023-09-07T11:41:26;37.75;;;6.70;;
59167;SDS011;70412;55.048;73.268;2023-09-07T11:44:29;9.30;;;3.72;;
59167;SDS011;70412;55.048;73.268;2023-09-07T11:47:32;11.77;;;4.15;;
59167;SDS011;70412;55.048;73.268;2023-09-07T11:50:40;8.23;;;3.20;;
59167;SDS011;70412;55.048;73.268;2023-09-07T11:53:43;10.10;;;2.83;;
59167;SDS011;70412;55.048;73.268;2023-09-07T11:56:49;8.10;;;3.10;;
59167;SDS011;70412;55.048;73.268;2023-09-07T11:59:55;8.80;;;3.70;;
59167;SDS011;70412;55.048;73.268;2023-09-07T12:03:01;11.32;;;3.88;;
59167;SDS011;70412;55.048;73.268;2023-09-07T12:06:04;12.35;;;4.60;;
59167;SDS011;70412;55.048;73.268;2023-09-07T12:09:07;11.30;;;5.05;;
59167;SDS011;70412;55.048;73.268;2023-09-07T12:12:11;7.00;;;2.80;;
59167;SDS011;70412;55.048;73.268;2023-09-07T12:15:13;10.23;;;3.17;;
59167;SDS011;70412;55.048;73.268;2023-09-07T12:18:35;6.80;;;2.53;;
59167;SDS011;70412;55.048;73.268;2023-09-07T12:21:43;13.18;;;2.92;;
59167;SDS011;70412;55.048;73.268;2023-09-07T12:24:46;8.05;;;2.97;;
59167;SDS011;70412;55.048;73.268;2023-09-07T12:27:48;11.10;;;2.40;;
59167;SDS011;70412;55.048;73.268;2023-09-07T12:30:52;13.38;;;3.17;;
59167;SDS011;70412;55.048;73.268;2023-09-07T12:33:54;11.45;;;3.60;;
59167;SDS011;70412;55.048;73.268;2023-09-07T12:36:57;8.75;;;2.72;;
59167;SDS011;70412;55.048;73.268;2023-09-07T12:40:01;9.75;;;3.13;;
59167;SDS011;70412;55.048;73.268;2023-09-07T12:43:09;9.13;;;2.85;;
59167;SDS011;70412;55.048;73.268;2023-09-07T12:46:15;13.73;;;4.28;;
59167;SDS011;70412;55.048;73.268;2023-09-07T12:49:21;11.30;;;5.72;;
59167;SDS011;70412;55.048;73.268;2023-09-07T12:52:23;10.80;;;4.30;;
59167;SDS011;70412;55.048;73.268;2023-09-07T12:55:26;11.48;;;3.67;;
59167;SDS011;70412;55.048;73.268;2023-09-07T12:58:29;7.13;;;2.67;;
59167;SDS011;70412;55.048;73.268;2023-09-07T13:01:32;6.47;;;3.17;;
59167;SDS011;70412;55.048;73.268;2023-09-07T13:04:35;13.00;;;3.72;;
59167;SDS011;70412;55.048;73.268;2023-09-07T13:07:44;12.52;;;2.85;;
59167;SDS011;70412;55.048;73.268;2023-09-07T13:10:47;12.45;;;2.90;;
59167;SDS011;70412;55.048;73.268;2023-09-07T13:13:50;13.60;;;3.30;;
59167;SDS011;70412;55.048;73.268;2023-09-07T13:16:54;9.88;;;2.90;;
59167;SDS011;70412;55.048;73.268;2023-09-07T13:20:01;14.20;;;3.13;;
59167;SDS011;70412;55.048;73.268;2023-09-07T13:23:04;18.08;;;3.55;;
59167;SDS011;70412;55.048;73.268;2023-09-07T13:26:07;15.60;;;3.15;;
59167;SDS011;70412;55.048;73.268;2023-09-07T13:29:09;10.27;;;3.10;;
59167;SDS011;70412;55.048;73.268;2023-09-07T13:32:13;23.23;;;4.93;;
59167;SDS011;70412;55.048;73.268;2023-09-07T13:35:27;23.55;;;5.22;;
59167;SDS011;70412;55.048;73.268;2023-09-07T13:38:39;15.50;;;6.25;;
59167;SDS011;70412;55.048;73.268;2023-09-07T13:41:43;18.42;;;5.55;;
59167;SDS011;70412;55.048;73.268;2023-09-07T13:44:52;27.55;;;5.63;;
59167;SDS011;70412;55.048;73.268;2023-09-07T13:47:57;16.75;;;6.63;;
59167;SDS011;70412;55.048;73.268;2023-09-07T13:51:00;70.45;;;34.72;;
59167;SDS011;70412;55.048;73.268;2023-09-07T13:54:02;52.17;;;23.98;;
59167;SDS011;70412;55.048;73.268;2023-09-07T13:57:16;104.30;;;43.15;;
59167;SDS011;70412;55.048;73.268;2023-09-07T14:03:28;151.27;;;51.22;;
59167;SDS011;70412;55.048;73.268;2023-09-07T14:06:40;92.35;;;38.38;;
59167;SDS011;70412;55.048;73.268;2023-09-07T14:09:42;86.88;;;39.42;;
59167;SDS011;70412;55.048;73.268;2023-09-07T14:12:45;79.00;;;34.97;;
59167;SDS011;70412;55.048;73.268;2023-09-07T14:15:50;83.50;;;35.22;;
59167;SDS011;70412;55.048;73.268;2023-09-07T14:18:59;91.67;;;34.67;;
59167;SDS011;70412;55.048;73.268;2023-09-07T14:22:20;78.03;;;34.83;;
59167;SDS011;70412;55.048;73.268;2023-09-07T14:25:27;71.43;;;32.53;;
59167;SDS011;70412;55.048;73.268;2023-09-07T14:28:29;73.57;;;30.63;;
59167;SDS011;70412;55.048;73.268;2023-09-07T14:32:00;98.22;;;30.02;;
59167;SDS011;70412;55.048;73.268;2023-09-07T14:35:01;84.05;;;26.55;;
59167;SDS011;70412;55.048;73.268;2023-09-07T14:38:05;76.80;;;27.90;;
59167;SDS011;70412;55.048;73.268;2023-09-07T14:41:08;84.22;;;26.83;;
59167;SDS011;70412;55.048;73.268;2023-09-07T14:44:20;95.97;;;28.45;;
59167;SDS011;70412;55.048;73.268;2023-09-07T14:47:23;110.32;;;30.83;;
59167;SDS011;70412;55.048;73.268;2023-09-07T14:50:27;91.10;;;29.40;;
59167;SDS011;70412;55.048;73.268;2023-09-07T14:53:31;110.22;;;30.25;;
59167;SDS011;70412;55.048;73.268;2023-09-07T14:56:33;112.47;;;29.88;;
59167;SDS011;70412;55.048;73.268;2023-09-07T14:59:36;118.85;;;37.83;;
59167;SDS011;70412;55.048;73.268;2023-09-07T15:02:41;143.77;;;34.47;;
59167;SDS011;70412;55.048;73.268;2023-09-07T15:05:43;132.98;;;39.97;;
59167;SDS011;70412;55.048;73.268;2023-09-07T15:08:45;114.40;;;39.27;;
59167;SDS011;70412;55.048;73.268;2023-09-07T15:11:49;121.18;;;38.65;;
59167;SDS011;70412;55.048;73.268;2023-09-07T15:14:52;145.40;;;39.33;;
59167;SDS011;70412;55.048;73.268;2023-09-07T15:17:54;134.48;;;40.67;;
59167;SDS011;70412;55.048;73.268;2023-09-07T15:20:56;123.45;;;39.45;;
59167;SDS011;70412;55.048;73.268;2023-09-07T15:23:59;132.32;;;35.20;;
59167;SDS011;70412;55.048;73.268;2023-09-07T15:27:08;124.40;;;35.30;;
59167;SDS011;70412;55.048;73.268;2023-09-07T15:30:12;127.90;;;35.15;;
59167;SDS011;70412;55.048;73.268;2023-09-07T15:33:15;125.32;;;33.20;;
59167;SDS011;70412;55.048;73.268;2023-09-07T15:36:17;129.95;;;35.15;;
59167;SDS011;70412;55.048;73.268;2023-09-07T15:39:19;114.20;;;29.77;;
59167;SDS011;70412;55.048;73.268;2023-09-07T15:42:22;110.03;;;30.83;;
59167;SDS011;70412;55.048;73.268;2023-09-07T15:45:24;117.78;;;32.00;;
59167;SDS011;70412;55.048;73.268;2023-09-07T15:48:27;115.72;;;31.80;;
59167;SDS011;70412;55.048;73.268;2023-09-07T15:51:29;132.93;;;31.38;;
59167;SDS011;70412;55.048;73.268;2023-09-07T15:54:32;100.75;;;31.38;;
59167;SDS011;70412;55.048;73.268;2023-09-07T15:57:36;116.10;;;31.88;;
59167;SDS011;70412;55.048;73.268;2023-09-07T16:00:38;90.43;;;30.92;;
59167;SDS011;70412;55.048;73.268;2023-09-07T16:03:41;111.38;;;33.85;;
59167;SDS011;70412;55.048;73.268;2023-09-07T16:06:45;114.35;;;31.90;;
59167;SDS011;70412;55.048;73.268;2023-09-07T16:09:48;89.97;;;28.70;;
59167;SDS011;70412;55.048;73.268;2023-09-07T16:12:50;131.55;;;34.03;;
59167;SDS011;70412;55.048;73.268;2023-09-07T16:15:53;109.50;;;32.83;;
59167;SDS011;70412;55.048;73.268;2023-09-07T16:19:00;113.70;;;32.72;;
59167;SDS011;70412;55.048;73.268;2023-09-07T16:22:03;98.63;;;31.70;;
59167;SDS011;70412;55.048;73.268;2023-09-07T16:25:08;112.43;;;32.90;;
59167;SDS011;70412;55.048;73.268;2023-09-07T16:28:11;114.80;;;33.38;;
59167;SDS011;70412;55.048;73.268;2023-09-07T16:31:14;116.05;;;35.38;;
59167;SDS011;70412;55.048;73.268;2023-09-07T16:34:19;127.82;;;36.90;;
59167;SDS011;70412;55.048;73.268;2023-09-07T16:37:22;113.38;;;34.92;;
59167;SDS011;70412;55.048;73.268;2023-09-07T16:40:28;98.63;;;33.37;;
59167;SDS011;70412;55.048;73.268;2023-09-07T16:43:34;97.30;;;31.35;;
59167;SDS011;70412;55.048;73.268;2023-09-07T16:46:36;104.18;;;31.20;;
59167;SDS011;70412;55.048;73.268;2023-09-07T16:49:40;121.20;;;35.60;;
59167;SDS011;70412;55.048;73.268;2023-09-07T16:52:44;102.13;;;35.20;;
59167;SDS011;70412;55.048;73.268;2023-09-07T16:55:46;103.32;;;32.55;;
59167;SDS011;70412;55.048;73.268;2023-09-07T16:58:49;118.13;;;32.15;;
59167;SDS011;70412;55.048;73.268;2023-09-07T17:01:51;107.57;;;33.27;;
59167;SDS011;70412;55.048;73.268;2023-09-07T17:04:57;128.57;;;33.05;;
59167;SDS011;70412;55.048;73.268;2023-09-07T17:08:18;98.50;;;30.90;;
59167;SDS011;70412;55.048;73.268;2023-09-07T17:11:20;120.35;;;35.28;;
59167;SDS011;70412;55.048;73.268;2023-09-07T17:14:23;117.15;;;35.72;;
59167;SDS011;70412;55.048;73.268;2023-09-07T17:17:29;99.97;;;33.38;;
59167;SDS011;70412;55.048;73.268;2023-09-07T17:20:35;87.17;;;31.40;;
59167;SDS011;70412;55.048;73.268;2023-09-07T17:23:40;102.83;;;34.20;;
59167;SDS011;70412;55.048;73.268;2023-09-07T17:26:43;100.85;;;32.20;;
59167;SDS011;70412;55.048;73.268;2023-09-07T17:29:50;83.36;;;32.04;;
59167;SDS011;70412;55.048;73.268;2023-09-07T17:32:52;95.20;;;33.88;;
59167;SDS011;70412;55.048;73.268;2023-09-07T17:35:58;87.37;;;30.50;;
59167;SDS011;70412;55.048;73.268;2023-09-07T17:39:01;101.50;;;35.70;;
59167;SDS011;70412;55.048;73.268;2023-09-07T17:42:04;86.15;;;34.35;;
59167;SDS011;70412;55.048;73.268;2023-09-07T17:45:10;96.85;;;35.05;;
59167;SDS011;70412;55.048;73.268;2023-09-07T17:48:12;83.38;;;32.97;;
59167;SDS011;70412;55.048;73.268;2023-09-07T17:51:15;94.32;;;32.67;;
59167;SDS011;70412;55.048;73.268;2023-09-07T17:54:18;83.32;;;32.17;;
59167;SDS011;70412;55.048;73.268;2023-09-07T17:57:21;82.38;;;32.83;;
59167;SDS011;70412;55.048;73.268;2023-09-07T18:00:23;73.13;;;30.03;;
59167;SDS011;70412;55.048;73.268;2023-09-07T18:03:28;80.93;;;30.85;;
59167;SDS011;70412;55.048;73.268;2023-09-07T18:06:36;86.75;;;34.40;;
59167;SDS011;70412;55.048;73.268;2023-09-07T18:09:58;91.85;;;35.45;;